^^
Saratoga-Weather Station Historical Data
 
Daily Summary for December 05, 2019 Units:  English    Metric   Both
Daily Weekly Monthly Yearly Custom
  Current: High: Low: Average:
Temperature: 74.8 °F 76.6 °F 48.7 °F 58.8 °F
Dew Point: 60.1 °F 63 °F 45.1 °F 51.9 °F
Humidity: 60% 90% 58% 79%
Wind Speed: 6.9mph 12.1mph 0mph 2.5mph
Wind Gust: 12mph 18mph - -
WindSouth - - ESE
Pressure: 30.00 in 30.12 in 30.00 in -
Precipitation: 0 in      
Historical Graphs
 
 
Tabular Data for December 05, 2019
Time Temperature Dew Point Pressure Wind Wind Speed Wind Gust Humidity Rainfall Rate (Hourly) solar
00:00 50.4 °F 45.3 °F 30.08 in Calm     83% 0 in 0.00 W/m2
00:05 50.4 °F 45.3 °F 30.08 in Calm     83% 0 in 0.00 W/m2
00:10 50.5 °F 45.3 °F 30.08 in Calm     82% 0 in 0.00 W/m2
00:15 50.5 °F 45.3 °F 30.08 in Calm     82% 0 in 0.00 W/m2
00:20 50.4 °F 45.1 °F 30.07 in Calm     82% 0 in 0.00 W/m2
00:25 50.2 °F 45.1 °F 30.07 in Calm   2 mph 83% 0 in 0.00 W/m2
00:30 50.2 °F 45.5 °F 30.07 in Calm     84% 0 in 0.00 W/m2
00:35 50.2 °F 45.5 °F 30.07 in Calm     84% 0 in 0.00 W/m2
00:40 50.2 °F 45.5 °F 30.07 in Calm     84% 0 in 0.00 W/m2
00:45 50.2 °F 45.5 °F 30.07 in Calm     84% 0 in 0.00 W/m2
00:50 50 °F 45.3 °F 30.07 in NNE 0.9 mph 2 mph 84% 0 in 0.00 W/m2
00:55 50.4 °F 45.7 °F 30.08 in Calm     84% 0 in 0.00 W/m2
01:00 50.2 °F 45.1 °F 30.07 in Calm     83% 0 in 0.00 W/m2
01:05 50.2 °F 45.5 °F 30.07 in Calm     84% 0 in 0.00 W/m2
01:10 50.2 °F 45.5 °F 30.07 in Calm     84% 0 in 0.00 W/m2
01:15 50.2 °F 45.5 °F 30.07 in Calm     84% 0 in 0.00 W/m2
01:20 50.2 °F 45.5 °F 30.07 in Calm   1 mph 84% 0 in 0.00 W/m2
01:25 50.2 °F 45.5 °F 30.07 in Calm     84% 0 in 0.00 W/m2
01:30 49.8 °F 45.1 °F 30.06 in Calm   1 mph 84% 0 in 0.00 W/m2
01:35 49.8 °F 45.5 °F 30.06 in Calm   1 mph 85% 0 in 0.00 W/m2
01:40 49.8 °F 45.5 °F 30.06 in Calm     85% 0 in 0.00 W/m2
01:45 49.8 °F 45.5 °F 30.06 in Calm     85% 0 in 0.00 W/m2
01:50 50 °F 45.7 °F 30.06 in Calm     85% 0 in 0.00 W/m2
01:55 50.2 °F 45.9 °F 30.07 in Calm   1 mph 85% 0 in 0.00 W/m2
02:00 50 °F 45.7 °F 30.07 in Calm     85% 0 in 0.00 W/m2
02:05 49.6 °F 45.3 °F 30.07 in Calm   1 mph 85% 0 in 0.00 W/m2
02:10 49.6 °F 45.3 °F 30.07 in Calm   1 mph 85% 0 in 0.00 W/m2
02:15 49.8 °F 45.5 °F 30.07 in Calm     85% 0 in 0.00 W/m2
02:20 49.8 °F 45.9 °F 30.08 in Calm     86% 0 in 0.00 W/m2
02:25 49.8 °F 45.5 °F 30.07 in Calm     85% 0 in 0.00 W/m2
02:30 50 °F 46 °F 30.07 in Calm     86% 0 in 0.00 W/m2
02:35 50 °F 46 °F 30.07 in Calm     86% 0 in 0.00 W/m2
02:40 50.2 °F 46.2 °F 30.07 in Calm     86% 0 in 0.00 W/m2
02:45 50.2 °F 46.2 °F 30.07 in Calm     86% 0 in 0.00 W/m2
02:50 50.2 °F 46.2 °F 30.08 in Calm     86% 0 in 0.00 W/m2
02:55 50 °F 46 °F 30.08 in Calm     86% 0 in 0.00 W/m2
03:00 50.2 °F 46.2 °F 30.08 in Calm     86% 0 in 0.00 W/m2
03:05 50 °F 46 °F 30.08 in Calm     86% 0 in 0.00 W/m2
03:10 49.8 °F 45.9 °F 30.08 in Calm     86% 0 in 0.00 W/m2
03:15 49.6 °F 45.9 °F 30.08 in NNE 0.9 mph 1 mph 87% 0 in 0.00 W/m2
03:20 49.6 °F 45.9 °F 30.08 in Calm   1 mph 87% 0 in 0.00 W/m2
03:25 49.6 °F 45.9 °F 30.08 in NNE 0.9 mph 1 mph 87% 0 in 0.00 W/m2
03:30 49.5 °F 45.7 °F 30.08 in Calm     87% 0 in 0.00 W/m2
03:35 49.5 °F 45.7 °F 30.08 in Calm     87% 0 in 0.00 W/m2
03:40 49.5 °F 46 °F 30.07 in Calm     88% 0 in 0.00 W/m2
03:45 48.9 °F 45.5 °F 30.07 in Calm     88% 0 in 0.00 W/m2
03:50 48.9 °F 45.5 °F 30.07 in Calm     88% 0 in 0.00 W/m2
03:55 48.7 °F 45.3 °F 30.07 in Calm     88% 0 in 0.00 W/m2
04:00 48.9 °F 45.9 °F 30.07 in Calm     89% 0 in 0.00 W/m2
04:05 48.9 °F 45.9 °F 30.06 in NNE 0.9 mph 1 mph 89% 0 in 0.00 W/m2
04:10 49.3 °F 46.2 °F 30.06 in Calm     89% 0 in 0.00 W/m2
04:15 49.5 °F 46 °F 30.06 in Calm   1 mph 88% 0 in 0.00 W/m2
04:20 49.6 °F 46.2 °F 30.06 in Calm     88% 0 in 0.00 W/m2
04:25 49.6 °F 46.2 °F 30.07 in Calm     88% 0 in 0.00 W/m2
04:30 49.6 °F 46.2 °F 30.06 in NNE 0.9 mph 1 mph 88% 0 in 0.00 W/m2
04:35 50 °F 46.6 °F 30.07 in Calm     88% 0 in 0.00 W/m2
04:40 50 °F 46.6 °F 30.06 in Calm   1 mph 88% 0 in 0.00 W/m2
04:45 50.2 °F 46.8 °F 30.07 in NNE 2 mph 2 mph 88% 0 in 0.00 W/m2
04:50 50.2 °F 46.8 °F 30.07 in Calm   1 mph 88% 0 in 0.00 W/m2
04:55 50.4 °F 46.9 °F 30.07 in NNE 0.9 mph 1 mph 88% 0 in 0.00 W/m2
05:00 50.4 °F 46.6 °F 30.06 in Calm     87% 0 in 0.00 W/m2
05:05 50.4 °F 46.6 °F 30.06 in Calm     87% 0 in 0.00 W/m2
05:10 50.4 °F 46.6 °F 30.06 in Calm     87% 0 in 0.00 W/m2
05:15 50.4 °F 46.9 °F 30.06 in Calm     88% 0 in 0.00 W/m2
05:20 50.4 °F 46.9 °F 30.06 in Calm     88% 0 in 0.00 W/m2
05:25 50.4 °F 46.9 °F 30.06 in Calm     88% 0 in 0.00 W/m2
05:30 50.4 °F 46.9 °F 30.06 in Calm   1 mph 88% 0 in 0.00 W/m2
05:35 50.4 °F 46.6 °F 30.06 in Calm   1 mph 87% 0 in 0.00 W/m2
05:40 50.2 °F 46.8 °F 30.06 in NNE 0.9 mph 1 mph 88% 0 in 0.00 W/m2
05:45 50.4 °F 46.9 °F 30.07 in Calm   1 mph 88% 0 in 0.00 W/m2
05:50 50.5 °F 47.1 °F 30.06 in Calm   1 mph 88% 0 in 0.00 W/m2
05:55 50.5 °F 47.1 °F 30.07 in NNE 0.9 mph 1 mph 88% 0 in 0.00 W/m2
06:00 50.7 °F 47.3 °F 30.06 in Calm   1 mph 88% 0 in 0.00 W/m2
06:05 50.4 °F 46.9 °F 30.07 in NNE 0.9 mph 2 mph 88% 0 in 0.00 W/m2
06:10 50.4 °F 46.9 °F 30.08 in NNE 0.9 mph 2 mph 88% 0 in 0.00 W/m2
06:15 50.5 °F 47.1 °F 30.08 in Calm   1 mph 88% 0 in 0.00 W/m2
06:20 50.7 °F 47.3 °F 30.08 in NNE 0.9 mph 1 mph 88% 0 in 0.00 W/m2
06:25 50.7 °F 47.3 °F 30.08 in NNE 0.9 mph 1 mph 88% 0 in 0.00 W/m2
06:30 50.7 °F 47.3 °F 30.08 in Calm     88% 0 in 0.00 W/m2
06:35 50.4 °F 46.9 °F 30.08 in NNE 0.9 mph 2 mph 88% 0 in 0.00 W/m2
06:40 50.2 °F 46.8 °F 30.08 in North 0.9 mph 3 mph 88% 0 in 0.00 W/m2
06:45 50 °F 46.9 °F 30.09 in North 0.9 mph 2 mph 89% 0 in 0.00 W/m2
06:50 50 °F 46.9 °F 30.09 in North 0.9 mph 2 mph 89% 0 in 0.00 W/m2
06:55 50.2 °F 47.1 °F 30.09 in North 0.9 mph 2 mph 89% 0 in 0.00 W/m2
07:00 50 °F 46.9 °F 30.09 in North 2 mph 2 mph 89% 0 in 0.00 W/m2
07:05 49.8 °F 46.8 °F 30.09 in North 0.9 mph 2 mph 89% 0 in 0.00 W/m2
07:10 50 °F 47.1 °F 30.09 in North 0.9 mph 1 mph 90% 0 in 5.00 W/m2
07:15 50.2 °F 47.3 °F 30.10 in North 0.9 mph 1 mph 90% 0 in 11.00 W/m2
07:20 50.4 °F 47.3 °F 30.09 in North 0.9 mph 1 mph 89% 0 in 12.00 W/m2
07:25 50.2 °F 47.1 °F 30.10 in North 0.9 mph 2 mph 89% 0 in 16.00 W/m2
07:30 50.4 °F 47.5 °F 30.10 in North 2 mph 2 mph 90% 0 in 21.00 W/m2
07:35 50.4 °F 47.5 °F 30.10 in Calm   1 mph 90% 0 in 28.00 W/m2
07:40 50.5 °F 47.7 °F 30.10 in North 0.9 mph 2 mph 90% 0 in 32.00 W/m2
07:45 50.7 °F 47.8 °F 30.10 in Calm   1 mph 90% 0 in 35.00 W/m2
07:50 51.3 °F 48.4 °F 30.10 in North 0.9 mph 2 mph 90% 0 in 40.00 W/m2
07:55 51.4 °F 48.6 °F 30.10 in NNE 0.9 mph 2 mph 90% 0 in 35.00 W/m2
08:00 52.2 °F 49.1 °F 30.10 in Calm   2 mph 89% 0 in 35.00 W/m2
08:05 52.5 °F 49.5 °F 30.10 in Calm   2 mph 89% 0 in 49.00 W/m2
08:10 53.2 °F 50 °F 30.11 in NNE 0.9 mph 2 mph 89% 0 in 93.00 W/m2
08:15 54 °F 50.5 °F 30.11 in NNE 2 mph 2 mph 88% 0 in 69.00 W/m2
08:20 54.7 °F 50.9 °F 30.11 in NNE 2 mph 2 mph 87% 0 in 107.00 W/m2
08:25 54.9 °F 50.7 °F 30.10 in ESE 2 mph 2 mph 86% 0 in 54.00 W/m2
08:30 55.2 °F 51.1 °F 30.10 in ESE 2.9 mph 3 mph 86% 0 in 151.00 W/m2
08:35 56.1 °F 51.6 °F 30.10 in SE 2.9 mph 4 mph 85% 0 in 153.00 W/m2
08:40 56.1 °F 51.6 °F 30.11 in ESE 0.9 mph 2 mph 85% 0 in 109.00 W/m2
08:45 56.5 °F 52 °F 30.11 in East 0.9 mph 3 mph 85% 0 in 236.00 W/m2
08:50 57.7 °F 52.9 °F 30.11 in ESE 0.9 mph 2 mph 84% 0 in 130.00 W/m2
08:55 57.9 °F 52.7 °F 30.11 in ESE 2 mph 3 mph 83% 0 in 127.00 W/m2
09:00 58.6 °F 53.4 °F 30.11 in ESE 0.9 mph 2 mph 83% 0 in 281.00 W/m2
09:05 60.4 °F 55.2 °F 30.11 in SE 2 mph 4 mph 83% 0 in 243.00 W/m2
09:10 61.2 °F 54.9 °F 30.11 in South 4 mph 4 mph 80% 0 in 401.00 W/m2
09:15 62.2 °F 55.6 °F 30.11 in ESE 4 mph 6 mph 79% 0 in 436.00 W/m2
09:20 63.3 °F 56.3 °F 30.12 in SSE 8.1 mph 8 mph 78% 0 in 264.00 W/m2
09:25 62.8 °F 55.8 °F 30.12 in SE 4 mph 7 mph 78% 0 in 186.00 W/m2
09:30 62.8 °F 56.1 °F 30.12 in ESE 2.9 mph 5 mph 79% 0 in 162.00 W/m2
09:35 64 °F 57 °F 30.11 in SSE 4.9 mph 8 mph 78% 0 in 434.00 W/m2
09:40 64.4 °F 56.7 °F 30.12 in South 6.9 mph 8 mph 76% 0 in 329.00 W/m2
09:45 64.8 °F 57 °F 30.12 in SSE 4 mph 7 mph 76% 0 in 404.00 W/m2
09:50 65.5 °F 57.4 °F 30.11 in SE 2 mph 8 mph 75% 0 in 413.00 W/m2
09:55 66.9 °F 58.3 °F 30.11 in SE 4 mph 6 mph 74% 0 in 431.00 W/m2
10:00 67.1 °F 58.1 °F 30.11 in SE 4.9 mph 8 mph 73% 0 in 425.00 W/m2
10:05 67.5 °F 58.5 °F 30.11 in SSE 4 mph 7 mph 73% 0 in 436.00 W/m2
10:10 68 °F 58.3 °F 30.11 in ESE 6 mph 10 mph 71% 0 in 473.00 W/m2
10:15 68.9 °F 58.6 °F 30.11 in SE 6.9 mph 8 mph 70% 0 in 503.00 W/m2
10:20 69.1 °F 58.5 °F 30.11 in SSE 10.1 mph 11 mph 69% 0 in 478.00 W/m2
10:25 69.3 °F 59 °F 30.11 in SSE 4 mph 6 mph 70% 0 in 504.00 W/m2
10:30 70.5 °F 59.9 °F 30.11 in South 11 mph 11 mph 69% 0 in 441.00 W/m2
10:35 70.5 °F 59.9 °F 30.11 in South 4 mph 6 mph 69% 0 in 510.00 W/m2
10:40 71.2 °F 59.7 °F 30.11 in SE 6 mph 7 mph 67% 0 in 515.00 W/m2
10:45 70.5 °F 59.9 °F 30.11 in ESE 6 mph 8 mph 69% 0 in 283.00 W/m2
10:50 70 °F 59.4 °F 30.11 in SSE 6 mph 8 mph 69% 0 in 308.00 W/m2
10:55 70 °F 60.1 °F 30.11 in SSE 4.9 mph 10 mph 71% 0 in 223.00 W/m2
11:00 71.2 °F 61 °F 30.11 in SSE 8.1 mph 8 mph 70% 0 in 506.00 W/m2
11:05 71.4 °F 60.3 °F 30.10 in SSE 4.9 mph 11 mph 68% 0 in 397.00 W/m2
11:10 71.1 °F 60.4 °F 30.10 in SSE 4.9 mph 8 mph 69% 0 in 410.00 W/m2
11:15 71.8 °F 60.6 °F 30.11 in SE 8.1 mph 10 mph 68% 0 in 461.00 W/m2
11:20 72 °F 60.8 °F 30.10 in SE 6.9 mph 8 mph 68% 0 in 457.00 W/m2
11:25 72.3 °F 61.2 °F 30.10 in SW 2 mph 5 mph 68% 0 in 373.00 W/m2
11:30 72.1 °F 61 °F 30.09 in SSW 6.9 mph 8 mph 68% 0 in 397.00 W/m2
11:35 71.8 °F 60.6 °F 30.09 in SSW 4.9 mph 6 mph 68% 0 in 332.00 W/m2
11:40 72.7 °F 61.5 °F 30.09 in SE 4.9 mph 7 mph 68% 0 in 489.00 W/m2
11:45 71.8 °F 60.3 °F 30.09 in South 2.9 mph 11 mph 67% 0 in 172.00 W/m2
11:50 70.9 °F 60.3 °F 30.09 in South 4.9 mph 9 mph 69% 0 in 216.00 W/m2
11:55 72 °F 61.2 °F 30.09 in SE 6 mph 9 mph 69% 0 in 758.00 W/m2
12:00 74.3 °F 62.6 °F 30.08 in South 2 mph 10 mph 67% 0 in 712.00 W/m2
12:05 74.5 °F 61.9 °F 30.08 in South 4 mph 8 mph 65% 0 in 608.00 W/m2
12:10 74.7 °F 62.6 °F 30.07 in South 4 mph 7 mph 66% 0 in 568.00 W/m2
12:15 74.7 °F 62.1 °F 30.07 in South 6.9 mph 8 mph 65% 0 in 540.00 W/m2
12:20 73.9 °F 61 °F 30.06 in SSE 8.9 mph 14 mph 64% 0 in 125.00 W/m2
12:25 74.1 °F 61.5 °F 30.06 in South 2.9 mph 8 mph 65% 0 in 612.00 W/m2
12:30 74.7 °F 61.2 °F 30.06 in South 6 mph 12 mph 63% 0 in 510.00 W/m2
12:35 74.5 °F 61.9 °F 30.06 in South 4 mph 8 mph 65% 0 in 649.00 W/m2
12:40 75 °F 62.1 °F 30.06 in SSE 6.9 mph 14 mph 64% 0 in 696.00 W/m2
12:45 74.7 °F 61.2 °F 30.06 in SE 8.9 mph 12 mph 63% 0 in 687.00 W/m2
12:50 75.4 °F 62.4 °F 30.05 in SE 8.9 mph 16 mph 64% 0 in 654.00 W/m2
12:55 74.5 °F 61 °F 30.05 in SSE 0.9 mph 8 mph 63% 0 in 297.00 W/m2
13:00 75.4 °F 61.5 °F 30.05 in South 11 mph 11 mph 62% 0 in 591.00 W/m2
13:05 76.1 °F 63 °F 30.04 in SSE 8.9 mph 13 mph 64% 0 in 680.00 W/m2
13:10 75 °F 61.2 °F 30.04 in SSE 8.1 mph 14 mph 62% 0 in 151.00 W/m2
13:15 75.4 °F 61.9 °F 30.03 in South 6 mph 12 mph 63% 0 in 652.00 W/m2
13:20 76.5 °F 62.4 °F 30.03 in SSE 8.1 mph 13 mph 62% 0 in 629.00 W/m2
13:25 75.9 °F 61.5 °F 30.02 in SE 8.9 mph 18 mph 61% 0 in 381.00 W/m2
13:30 76.1 °F 61.2 °F 30.02 in SSE 12.1 mph 15 mph 60% 0 in 229.00 W/m2
13:35 74.5 °F 59.7 °F 30.02 in South 6 mph 17 mph 60% 0 in 272.00 W/m2
13:40 74.1 °F 60.3 °F 30.02 in SSW 2.9 mph 6 mph 62% 0 in 330.00 W/m2
13:45 73.9 °F 59.7 °F 30.02 in South 4.9 mph 8 mph 61% 0 in 239.00 W/m2
13:50 74.5 °F 60.6 °F 30.02 in SSW 8.1 mph 9 mph 62% 0 in 304.00 W/m2
13:55 74.3 °F 59.9 °F 30.01 in SW 4.9 mph 15 mph 61% 0 in 308.00 W/m2
14:00 74.7 °F 60.3 °F 30.01 in SE 11 mph 11 mph 61% 0 in 443.00 W/m2
14:05 75.6 °F 60.6 °F 30.01 in SSE 2 mph 12 mph 60% 0 in 563.00 W/m2
14:10 75.6 °F 60.6 °F 30.01 in South 6 mph 11 mph 60% 0 in 499.00 W/m2
14:15 76.3 °F 61.3 °F 30.01 in South 2.9 mph 8 mph 60% 0 in 475.00 W/m2
14:20 76.5 °F 61 °F 30.01 in SSW 6 mph 10 mph 59% 0 in 513.00 W/m2
14:25 76.6 °F 61.2 °F 30.01 in SE 6 mph 8 mph 59% 0 in 540.00 W/m2
14:30 76.6 °F 60.8 °F 30.01 in SSE 6 mph 10 mph 58% 0 in 362.00 W/m2
14:35 75.6 °F 59.7 °F 30.00 in SSE 8.1 mph 12 mph 58% 0 in 172.00 W/m2
14:40 74.8 °F 60.1 °F 30.00 in South 6.9 mph 12 mph 60% 0 in 186.00 W/m2
Villages of Bridgestone, Spring, TX USA
Compliments of Weather Underground - 2.25 mb